createdAt,value
2022-08-17T00:00:05.766Z,26.79
2022-08-17T00:03:18.082Z,26.77
2022-08-17T00:05:55.455Z,26.76
2022-08-17T00:08:25.763Z,26.81
2022-08-17T00:10:54.784Z,26.78
2022-08-17T00:13:32.765Z,26.81
2022-08-17T00:16:07.412Z,26.75
2022-08-17T00:19:01.851Z,26.78
2022-08-17T00:21:23.781Z,26.67
2022-08-17T00:23:53.632Z,26.69
2022-08-17T00:26:43.144Z,26.63
2022-08-17T00:29:10.106Z,26.62
2022-08-17T00:31:47.527Z,26.59
2022-08-17T00:34:15.265Z,26.64
2022-08-17T00:36:42.746Z,26.33
2022-08-17T00:39:10.309Z,26.13
2022-08-17T00:41:42.256Z,26.00
2022-08-17T00:44:12.278Z,25.97
2022-08-17T00:46:42.659Z,25.53
2022-08-17T00:49:11.625Z,25.68
2022-08-17T00:51:45.059Z,25.75
2022-08-17T00:54:27.180Z,25.91
2022-08-17T00:57:02.954Z,25.91
2022-08-17T00:59:37.877Z,25.94
2022-08-17T01:02:06.908Z,26.07
2022-08-17T01:04:34.822Z,26.04
2022-08-17T01:07:04.485Z,26.15
2022-08-17T01:09:32.331Z,26.09
2022-08-17T01:12:00.439Z,26.07
2022-08-17T01:14:28.082Z,26.17
2022-08-17T01:16:55.928Z,25.98
2022-08-17T01:19:29.789Z,26.05
2022-08-17T01:22:03.927Z,26.09
2022-08-17T01:24:33.851Z,26.12
2022-08-17T01:27:02.242Z,26.01
2022-08-17T01:29:31.246Z,26.07
2022-08-17T01:32:02.335Z,26.06
2022-08-17T01:34:42.089Z,26.15
2022-08-17T01:37:13.636Z,25.98
2022-08-17T01:39:54.977Z,25.86
2022-08-17T01:42:40.416Z,25.84
2022-08-17T01:45:18.175Z,25.90
2022-08-17T01:47:46.185Z,25.95
2022-08-17T01:50:17.261Z,26.00
2022-08-17T01:52:46.197Z,25.93
2022-08-17T01:55:16.479Z,26.02
2022-08-17T01:57:45.715Z,26.04
2022-08-17T02:00:14.273Z,25.97
2022-08-17T02:02:42.723Z,25.97
2022-08-17T02:05:10.389Z,25.98
2022-08-17T02:07:59.700Z,25.91
2022-08-17T02:10:32.891Z,25.93
2022-08-17T02:13:03.651Z,25.98
2022-08-17T02:15:32.122Z,25.96
2022-08-17T02:17:59.605Z,25.85
2022-08-17T02:20:41.286Z,25.81
2022-08-17T02:23:12.141Z,25.76
2022-08-17T02:25:40.543Z,25.70
2022-08-17T02:28:08.101Z,25.75
2022-08-17T02:30:59.513Z,25.71
2022-08-17T02:33:23.499Z,25.72
2022-08-17T02:36:12.116Z,25.74
2022-08-17T02:38:40.706Z,25.58
2022-08-17T02:41:08.349Z,25.79
2022-08-17T02:43:36.176Z,25.81
2022-08-17T02:46:03.751Z,25.76
2022-08-17T02:48:32.049Z,25.74
2022-08-17T02:51:00.888Z,25.71
2022-08-17T02:53:35.551Z,25.71
2022-08-17T02:56:04.456Z,25.70
2022-08-17T02:58:35.818Z,25.72
2022-08-17T03:01:09.722Z,25.50
2022-08-17T03:03:37.754Z,25.56
2022-08-17T03:06:07.556Z,25.42
2022-08-17T03:08:36.402Z,25.48
2022-08-17T03:11:04.204Z,25.40
2022-08-17T03:13:31.998Z,25.33
2022-08-17T03:15:59.461Z,25.30
2022-08-17T03:18:28.025Z,25.16
2022-08-17T03:20:59.375Z,25.08
2022-08-17T03:23:27.611Z,24.99
2022-08-17T03:25:58.277Z,24.94
2022-08-17T03:28:26.249Z,24.96
2022-08-17T03:30:54.317Z,24.89
2022-08-17T03:33:22.373Z,24.90
2022-08-17T03:35:50.277Z,24.94
2022-08-17T03:38:18.303Z,24.93
2022-08-17T03:40:56.729Z,24.99
2022-08-17T03:43:31.547Z,24.99
2022-08-17T03:46:33.917Z,25.02
2022-08-17T03:49:25.635Z,24.90
2022-08-17T03:52:13.420Z,24.96
2022-08-17T03:55:00.838Z,24.93
2022-08-17T03:57:29.205Z,25.05
2022-08-17T03:59:57.167Z,25.04
2022-08-17T04:02:28.537Z,25.18
2022-08-17T04:04:56.803Z,25.20
2022-08-17T04:07:27.594Z,25.32
2022-08-17T04:09:55.254Z,25.36
2022-08-17T04:12:24.318Z,25.22
2022-08-17T04:14:54.757Z,25.26
2022-08-17T04:17:26.219Z,25.01
2022-08-17T04:19:54.381Z,24.97
2022-08-17T04:22:33.378Z,25.06
2022-08-17T04:25:16.941Z,25.09
2022-08-17T04:27:44.425Z,25.20
2022-08-17T04:30:12.814Z,25.20
2022-08-17T04:33:06.043Z,25.24
2022-08-17T04:35:39.432Z,25.27
2022-08-17T04:38:09.569Z,25.31
2022-08-17T04:40:55.973Z,25.44
2022-08-17T04:43:25.919Z,25.49
2022-08-17T04:46:02.805Z,25.66
2022-08-17T04:48:36.584Z,25.78
2022-08-17T04:51:09.860Z,25.78
2022-08-17T04:53:42.476Z,25.93
2022-08-17T04:56:16.968Z,25.99
2022-08-17T04:58:49.753Z,26.05
2022-08-17T05:01:22.931Z,26.28
2022-08-17T05:03:53.565Z,26.36
2022-08-17T05:06:21.674Z,26.52
2022-08-17T05:08:49.576Z,26.57
2022-08-17T05:11:17.490Z,26.68
2022-08-17T05:13:45.346Z,27.03
2022-08-17T05:16:12.866Z,26.93
2022-08-17T05:18:40.370Z,26.95
2022-08-17T05:21:08.766Z,26.99
2022-08-17T05:23:42.676Z,26.97
2022-08-17T05:26:26.190Z,27.16
2022-08-17T05:28:57.113Z,27.16
2022-08-17T05:31:28.734Z,27.49
2022-08-17T05:33:56.343Z,27.74
2022-08-17T05:36:43.723Z,28.12
2022-08-17T05:39:15.983Z,28.18
2022-08-17T05:41:48.101Z,28.08
2022-08-17T05:44:16.451Z,27.99
2022-08-17T05:46:48.632Z,27.86
2022-08-17T05:49:19.303Z,28.18
2022-08-17T05:51:57.349Z,28.53
2022-08-17T05:54:34.541Z,28.48
2022-08-17T05:57:23.239Z,29.04
2022-08-17T06:00:07.525Z,29.33
2022-08-17T06:03:12.647Z,29.12
2022-08-17T06:06:01.309Z,29.21
2022-08-17T06:08:39.569Z,28.82
2022-08-17T06:11:23.103Z,29.17
2022-08-17T06:14:09.328Z,29.31
2022-08-17T06:16:44.014Z,29.46
2022-08-17T06:19:19.467Z,29.41
2022-08-17T06:21:50.317Z,29.36
2022-08-17T06:24:38.214Z,29.30
2022-08-17T06:27:36.734Z,29.36
2022-08-17T06:30:21.694Z,29.55
2022-08-17T06:32:51.160Z,29.57
2022-08-17T06:35:42.346Z,29.48
2022-08-17T06:38:37.565Z,29.29
2022-08-17T06:41:18.045Z,29.65
2022-08-17T06:43:50.869Z,29.58
2022-08-17T06:46:21.227Z,29.46
2022-08-17T06:49:25.376Z,29.83
2022-08-17T06:52:01.088Z,30.02
2022-08-17T06:54:48.988Z,29.69
2022-08-17T06:57:28.336Z,30.20
2022-08-17T07:00:00.146Z,30.10
2022-08-17T07:02:52.075Z,30.07
2022-08-17T07:05:34.397Z,30.27
2022-08-17T07:08:11.676Z,30.09
2022-08-17T07:10:44.942Z,29.99
2022-08-17T07:13:25.548Z,30.21
2022-08-17T07:15:58.493Z,30.19
2022-08-17T07:18:30.263Z,30.45
2022-08-17T07:21:07.481Z,30.55
2022-08-17T07:24:04.096Z,30.58
2022-08-17T07:26:31.857Z,30.22
2022-08-17T07:28:59.967Z,30.32
2022-08-17T07:33:25.908Z,31.20
2022-08-17T07:35:54.097Z,31.20
2022-08-17T07:38:33.240Z,30.97
2022-08-17T07:41:05.436Z,30.98
2022-08-17T07:43:41.969Z,30.86
2022-08-17T07:46:54.783Z,31.04
2022-08-17T07:49:33.853Z,30.85
2022-08-17T07:52:47.962Z,31.12
2022-08-17T07:54:54.491Z,31.23
2022-08-17T07:57:29.406Z,31.12
2022-08-17T08:00:01.485Z,31.29
2022-08-17T08:02:43.183Z,31.47
2022-08-17T08:05:13.020Z,31.30
2022-08-17T08:07:55.437Z,31.37
2022-08-17T08:10:38.585Z,31.17
2022-08-17T08:13:29.707Z,31.54
2022-08-17T08:16:21.387Z,31.57
2022-08-17T08:18:56.038Z,31.66
2022-08-17T08:21:49.333Z,30.77
2022-08-17T08:24:42.029Z,31.48
2022-08-17T08:27:27.193Z,31.70
2022-08-17T08:30:05.261Z,31.68
2022-08-17T08:33:08.525Z,31.72
2022-08-17T08:37:15.934Z,31.45
2022-08-17T08:39:43.700Z,32.19
2022-08-17T08:42:25.102Z,32.22
2022-08-17T08:45:16.123Z,31.69
2022-08-17T08:48:46.079Z,32.09
2022-08-17T08:51:33.342Z,32.30
2022-08-17T08:54:26.573Z,32.50
2022-08-17T08:57:25.124Z,32.51
2022-08-17T09:00:07.183Z,31.96
2022-08-17T09:02:40.846Z,32.44
2022-08-17T09:05:15.588Z,32.44
2022-08-17T09:08:00.121Z,32.47
2022-08-17T09:10:32.059Z,32.64
2022-08-17T09:13:10.212Z,32.90
2022-08-17T09:15:41.306Z,32.58
2022-08-17T09:19:03.216Z,32.55
2022-08-17T09:21:33.696Z,32.48
2022-08-17T09:24:05.839Z,32.90
2022-08-17T09:26:39.491Z,33.60
2022-08-17T09:29:13.905Z,33.09
2022-08-17T09:31:59.706Z,33.63
2022-08-17T09:34:38.990Z,33.79
2022-08-17T09:37:22.808Z,33.68
2022-08-17T09:40:14.161Z,33.89
2022-08-17T09:43:03.173Z,33.81
2022-08-17T09:45:39.717Z,34.24
2022-08-17T09:48:14.372Z,34.12
2022-08-17T09:51:03.894Z,34.76
2022-08-17T09:53:36.106Z,34.71
2022-08-17T09:56:14.135Z,34.88
2022-08-17T09:58:50.507Z,34.60
2022-08-17T10:01:24.126Z,34.90
2022-08-17T10:04:04.437Z,35.44
2022-08-17T10:06:43.734Z,35.48
2022-08-17T10:09:24.563Z,35.19
2022-08-17T10:12:20.526Z,35.27
2022-08-17T10:14:57.447Z,35.80
2022-08-17T10:17:36.665Z,36.24
2022-08-17T10:20:34.282Z,36.37
2022-08-17T10:23:34.631Z,36.54
2022-08-17T10:26:15.624Z,36.70
2022-08-17T10:29:13.354Z,36.28
2022-08-17T10:31:55.662Z,35.98
2022-08-17T10:35:09.012Z,36.48
2022-08-17T10:38:13.729Z,36.81
2022-08-17T10:40:53.428Z,36.44
2022-08-17T10:43:31.111Z,36.22
2022-08-17T10:46:10.496Z,36.38
2022-08-17T10:49:23.772Z,36.88
2022-08-17T10:51:56.289Z,36.79
2022-08-17T10:54:24.018Z,37.02
2022-08-17T10:56:56.572Z,37.20
2022-08-17T10:59:36.419Z,37.00
2022-08-17T11:02:16.217Z,37.20
2022-08-17T11:05:22.334Z,36.99
2022-08-17T11:07:58.901Z,36.65
2022-08-17T11:10:38.989Z,36.23
2022-08-17T11:13:43.183Z,36.33
2022-08-17T11:16:35.988Z,35.76
2022-08-17T11:19:28.617Z,35.41
2022-08-17T11:22:09.180Z,35.68
2022-08-17T11:24:43.359Z,35.36
2022-08-17T11:27:22.110Z,35.91
2022-08-17T11:30:12.857Z,35.72
2022-08-17T11:33:00.382Z,35.68
2022-08-17T11:35:48.520Z,35.73
2022-08-17T11:38:28.399Z,36.01
2022-08-17T11:41:14.757Z,35.80
2022-08-17T11:44:04.006Z,35.98
2022-08-17T11:47:15.066Z,35.80
2022-08-17T11:50:16.803Z,35.45
2022-08-17T11:52:47.986Z,35.24
2022-08-17T11:55:40.760Z,35.65
2022-08-17T11:58:37.413Z,35.10
2022-08-17T12:01:08.544Z,35.35
2022-08-17T12:03:38.950Z,34.66
2022-08-17T12:06:31.046Z,34.91
2022-08-17T12:09:20.208Z,35.52
2022-08-17T12:12:11.369Z,35.31
2022-08-17T12:15:11.368Z,35.34
2022-08-17T12:17:42.912Z,35.62
2022-08-17T12:20:29.570Z,35.68
2022-08-17T12:23:12.052Z,36.00
2022-08-17T12:25:47.884Z,35.90
2022-08-17T12:28:26.460Z,35.53
2022-08-17T12:30:57.055Z,35.87
2022-08-17T12:33:27.909Z,35.45
2022-08-17T12:35:59.683Z,35.41
2022-08-17T12:38:34.533Z,35.64
2022-08-17T12:41:25.609Z,36.27
2022-08-17T12:44:02.421Z,35.88
2022-08-17T12:46:44.939Z,36.44
2022-08-17T12:49:36.467Z,36.71
2022-08-17T12:52:20.348Z,36.81
2022-08-17T12:54:51.617Z,36.42
2022-08-17T12:57:33.133Z,36.60
2022-08-17T13:00:21.054Z,36.42
2022-08-17T13:02:52.104Z,36.07
2022-08-17T13:05:36.058Z,36.09
2022-08-17T13:08:05.927Z,36.13
2022-08-17T13:10:39.161Z,36.39
2022-08-17T13:13:41.180Z,35.43
2022-08-17T13:16:11.609Z,36.48
2022-08-17T13:18:43.480Z,36.60
2022-08-17T13:21:20.006Z,36.62
2022-08-17T13:23:57.213Z,36.10
2022-08-17T13:26:30.024Z,36.02
2022-08-17T13:28:58.453Z,36.50
2022-08-17T13:31:27.923Z,36.57
2022-08-17T13:34:14.688Z,36.05
2022-08-17T13:36:44.058Z,36.46
2022-08-17T13:39:16.873Z,35.82
2022-08-17T13:41:44.959Z,36.08
2022-08-17T13:44:32.253Z,36.51
2022-08-17T13:47:02.043Z,36.61
2022-08-17T13:49:41.937Z,36.60
2022-08-17T13:52:32.091Z,35.92
2022-08-17T13:55:30.129Z,36.51
2022-08-17T13:58:05.052Z,36.34
2022-08-17T14:00:37.459Z,36.57
2022-08-17T14:03:08.975Z,36.32
2022-08-17T14:05:40.790Z,36.27
2022-08-17T14:08:12.008Z,36.10
2022-08-17T14:10:39.999Z,36.10
2022-08-17T14:13:07.901Z,36.12
2022-08-17T14:15:56.041Z,36.10
2022-08-17T14:18:50.650Z,36.28
2022-08-17T14:21:11.293Z,36.31
2022-08-17T14:23:39.320Z,36.11
2022-08-17T14:26:10.470Z,36.31
2022-08-17T14:28:38.800Z,36.74
2022-08-17T14:31:22.657Z,36.73
2022-08-17T14:33:52.173Z,36.80
2022-08-17T14:36:19.802Z,36.98
2022-08-17T14:38:47.604Z,36.64
2022-08-17T14:41:21.455Z,36.80
2022-08-17T14:43:52.927Z,36.95
2022-08-17T14:46:20.545Z,37.00
2022-08-17T14:48:50.812Z,36.78
2022-08-17T14:51:23.318Z,36.64
2022-08-17T14:53:50.835Z,37.11
2022-08-17T14:56:18.450Z,36.66
2022-08-17T14:58:46.338Z,36.25
2022-08-17T15:01:14.441Z,36.51
2022-08-17T15:03:42.376Z,36.57
2022-08-17T15:06:14.762Z,36.91
2022-08-17T15:08:44.126Z,36.80
2022-08-17T15:11:14.443Z,36.66
2022-08-17T15:13:52.469Z,37.19
2022-08-17T15:16:20.954Z,36.72
2022-08-17T15:18:49.158Z,36.78
2022-08-17T15:21:19.261Z,36.67
2022-08-17T15:23:47.801Z,36.71
2022-08-17T15:26:15.358Z,36.71
2022-08-17T15:28:42.911Z,37.05
2022-08-17T15:31:10.846Z,36.96
2022-08-17T15:33:38.410Z,37.21
2022-08-17T15:36:07.449Z,37.04
2022-08-17T15:38:42.149Z,37.13
2022-08-17T15:41:15.384Z,37.10
2022-08-17T15:43:52.571Z,36.34
2022-08-17T15:46:25.645Z,36.61
2022-08-17T15:49:00.139Z,36.27
2022-08-17T15:51:36.517Z,36.70
2022-08-17T15:54:18.711Z,36.62
2022-08-17T15:56:49.622Z,36.13
2022-08-17T15:59:17.339Z,36.72
2022-08-17T16:03:14.560Z,36.53
2022-08-17T16:04:43.964Z,36.69
2022-08-17T16:07:17.491Z,36.90
2022-08-17T16:09:45.528Z,36.79
2022-08-17T16:12:16.643Z,36.91
2022-08-17T16:14:47.183Z,36.25
2022-08-17T16:17:39.912Z,36.83
2022-08-17T16:20:03.735Z,36.44
2022-08-17T16:22:39.602Z,36.84
2022-08-17T16:25:17.566Z,36.44
2022-08-17T16:27:46.633Z,36.23
2022-08-17T16:30:17.565Z,36.60
2022-08-17T16:32:47.032Z,36.79
2022-08-17T16:35:18.542Z,36.67
2022-08-17T16:37:46.994Z,36.08
2022-08-17T16:40:18.127Z,36.18
2022-08-17T16:42:48.508Z,36.44
2022-08-17T16:45:20.238Z,36.46
2022-08-17T16:47:50.959Z,36.21
2022-08-17T16:50:23.091Z,36.02
2022-08-17T16:52:53.103Z,36.20
2022-08-17T16:55:22.316Z,36.41
2022-08-17T16:57:51.677Z,36.39
2022-08-17T17:00:20.961Z,36.34
2022-08-17T17:02:51.499Z,36.14
2022-08-17T17:05:19.391Z,36.09
2022-08-17T17:08:07.732Z,35.87
2022-08-17T17:10:48.461Z,35.70
2022-08-17T17:13:59.706Z,35.90
2022-08-17T17:16:53.040Z,35.96
2022-08-17T17:19:35.755Z,35.85
2022-08-17T17:22:08.070Z,35.79
2022-08-17T17:24:56.548Z,35.80
2022-08-17T17:27:37.753Z,35.66
2022-08-17T17:30:16.199Z,35.62
2022-08-17T17:33:04.247Z,35.43
2022-08-17T17:35:57.125Z,35.31
2022-08-17T17:38:29.443Z,35.26
2022-08-17T17:41:04.535Z,35.15
2022-08-17T17:43:39.618Z,35.12
2022-08-17T17:46:28.706Z,35.07
2022-08-17T17:48:58.023Z,34.92
2022-08-17T17:52:06.888Z,34.82
2022-08-17T17:54:40.080Z,34.82
2022-08-17T17:57:24.687Z,34.59
2022-08-17T18:00:23.642Z,34.32
2022-08-17T18:03:15.233Z,34.31
2022-08-17T18:06:02.397Z,34.27
2022-08-17T18:08:49.779Z,34.18
2022-08-17T18:11:34.794Z,34.01
2022-08-17T18:14:30.829Z,33.72
2022-08-17T18:16:59.760Z,33.62
2022-08-17T18:19:32.976Z,33.39
2022-08-17T18:22:06.737Z,33.28
2022-08-17T18:24:36.106Z,33.40
2022-08-17T18:27:25.808Z,33.46
2022-08-17T18:29:56.000Z,33.35
2022-08-17T18:32:27.651Z,33.22
2022-08-17T18:34:55.470Z,33.11
2022-08-17T18:37:42.705Z,33.10
2022-08-17T18:40:19.812Z,33.06
2022-08-17T18:43:08.769Z,32.99
2022-08-17T18:45:51.966Z,32.90
2022-08-17T18:48:37.128Z,32.86
2022-08-17T18:51:39.731Z,32.80
2022-08-17T18:54:21.529Z,32.67
2022-08-17T18:56:58.147Z,32.47
2022-08-17T18:59:45.422Z,32.50
2022-08-17T19:02:27.238Z,32.29
2022-08-17T19:05:10.652Z,31.98
2022-08-17T19:07:47.002Z,32.16
2022-08-17T19:10:25.174Z,32.18
2022-08-17T19:13:12.308Z,32.11
2022-08-17T19:16:11.752Z,31.97
2022-08-17T19:19:04.340Z,31.86
2022-08-17T19:21:40.431Z,31.81
2022-08-17T19:24:19.555Z,31.76
2022-08-17T19:26:56.688Z,31.73
2022-08-17T19:29:46.106Z,31.60
2022-08-17T19:32:20.164Z,31.47
2022-08-17T19:34:49.368Z,31.18
2022-08-17T19:37:40.881Z,31.18
2022-08-17T19:40:52.136Z,31.28
2022-08-17T19:43:33.103Z,31.29
2022-08-17T19:46:26.028Z,31.05
2022-08-17T19:49:00.308Z,30.97
2022-08-17T19:51:43.829Z,31.01
2022-08-17T19:54:34.419Z,30.94
2022-08-17T19:57:08.349Z,30.92
2022-08-17T20:00:08.734Z,30.76
2022-08-17T20:02:42.446Z,30.79
2022-08-17T20:05:16.903Z,30.66
2022-08-17T20:08:00.331Z,30.65
2022-08-17T20:10:48.110Z,30.45
2022-08-17T20:13:43.979Z,30.38
2022-08-17T20:16:12.250Z,30.34
2022-08-17T20:18:55.867Z,30.20
2022-08-17T20:21:29.111Z,30.10
2022-08-17T20:24:06.453Z,30.00
2022-08-17T20:26:51.241Z,30.02
2022-08-17T20:29:40.219Z,30.02
2022-08-17T20:32:17.828Z,29.91
2022-08-17T20:34:47.658Z,29.87
2022-08-17T20:37:15.263Z,29.75
2022-08-17T20:39:46.781Z,29.44
2022-08-17T20:42:20.666Z,29.45
2022-08-17T20:44:51.313Z,29.50
2022-08-17T20:47:28.608Z,29.47
2022-08-17T20:50:13.003Z,29.56
2022-08-17T20:52:46.977Z,29.51
2022-08-17T20:55:51.341Z,29.51
2022-08-17T20:58:37.076Z,29.56
2022-08-17T21:01:40.431Z,29.53
2022-08-17T21:04:47.392Z,29.50
2022-08-17T21:07:41.061Z,29.32
2022-08-17T21:10:35.711Z,29.10
2022-08-17T21:13:15.550Z,29.04
2022-08-17T21:15:48.604Z,28.97
2022-08-17T21:18:28.356Z,29.01
2022-08-17T21:21:24.252Z,28.95
2022-08-17T21:24:11.675Z,29.00
2022-08-17T21:26:58.213Z,28.83
2022-08-17T21:29:31.067Z,28.77
2022-08-17T21:32:05.512Z,28.75
2022-08-17T21:34:43.213Z,28.65
2022-08-17T21:37:20.314Z,28.73
2022-08-17T21:39:53.598Z,28.58
2022-08-17T21:42:34.020Z,28.60
2022-08-17T21:45:38.893Z,28.61
2022-08-17T21:48:14.536Z,28.73
2022-08-17T21:50:44.976Z,28.68
2022-08-17T21:53:21.740Z,28.74
2022-08-17T21:55:50.538Z,28.60
2022-08-17T21:58:40.417Z,28.49
2022-08-17T22:01:21.990Z,28.28
2022-08-17T22:04:01.715Z,28.24
2022-08-17T22:06:38.334Z,27.78
2022-08-17T22:09:10.694Z,27.78
2022-08-17T22:11:58.174Z,27.70
2022-08-17T22:14:52.913Z,27.95
2022-08-17T22:17:22.892Z,27.93
2022-08-17T22:19:54.078Z,27.93
2022-08-17T22:22:28.758Z,27.85
2022-08-17T22:24:59.416Z,28.05
2022-08-17T22:27:49.290Z,28.15
2022-08-17T22:30:26.159Z,28.13
2022-08-17T22:32:54.114Z,28.05
2022-08-17T22:35:32.630Z,27.91
2022-08-17T22:38:18.494Z,27.85
2022-08-17T22:40:52.018Z,27.75
2022-08-17T22:43:26.233Z,27.80
2022-08-17T22:45:56.918Z,27.91
2022-08-17T22:48:28.383Z,27.92
2022-08-17T22:51:13.947Z,27.90
2022-08-17T22:54:09.943Z,27.84
2022-08-17T22:56:56.985Z,27.94
2022-08-17T22:59:46.031Z,27.90
2022-08-17T23:02:19.251Z,27.92
2022-08-17T23:04:51.320Z,27.89
2022-08-17T23:07:20.661Z,27.75
2022-08-17T23:09:48.308Z,27.64
2022-08-17T23:12:23.621Z,27.56
2022-08-17T23:14:56.888Z,27.57
2022-08-17T23:17:24.509Z,27.47
2022-08-17T23:19:53.181Z,27.49
2022-08-17T23:22:20.751Z,27.47
2022-08-17T23:24:51.526Z,27.59
2022-08-17T23:27:20.265Z,27.61
2022-08-17T23:29:48.722Z,27.72
2022-08-17T23:32:17.907Z,27.57
2022-08-17T23:34:48.778Z,27.45
2022-08-17T23:37:17.863Z,27.63
2022-08-17T23:39:45.821Z,27.67
2022-08-17T23:42:17.412Z,27.60
2022-08-17T23:44:46.182Z,27.73
2022-08-17T23:47:14.664Z,27.47
2022-08-17T23:49:42.555Z,27.73
2022-08-17T23:52:15.148Z,27.88
2022-08-17T23:54:46.645Z,27.99
2022-08-17T23:57:16.813Z,27.90
2022-08-17T23:59:45.080Z,27.97
